Wednesday, January 17, 2018, 4:51 PM EST
Back to Local

KAKR, Akron Fulton International

Location: Akron, OH, United States Lat: 41.033
Local Time: 4:51 PM EST (21:51 GMT) Lon: -81.467
Time Zone: US/Eastern Elev: 1069 ft

Show me the last for .
Show Decoded

2018-01-17 15:54 METAR KAKR 172054Z AUTO 23008KT 9SM BKN041 M09/M14 A3039 RMK AO2 SLP314
                 T10941144 55009 $ =
2018-01-17 15:08 METAR KAKR 172008Z AUTO 23012KT 9SM SCT016 M09/M14 A3039 RMK AO2 T10941144 $ =
2018-01-17 14:54 METAR KAKR 171954Z AUTO 22010KT 8SM BKN016 M09/M14 A3039 RMK AO2 SLP314
                 T10941139 $ =
2018-01-17 13:54 METAR KAKR 171854Z AUTO 22010KT 7SM OVC016 M10/M14 A3040 RMK AO2 SLP317
                 T11001139 $ =
2018-01-17 12:54 METAR KAKR 171754Z AUTO 22009KT 5SM HZ OVC018 M10/M14 A3042 RMK AO2 SLP323 60000
                 T11001139 11100 21150 58014 $ =
2018-01-17 11:54 METAR KAKR 171654Z AUTO 22007KT 9SM BKN016 M11/M14 A3045 RMK AO2 SLP333
                 T11061144 $ =
2018-01-17 10:54 METAR KAKR 171554Z AUTO 23006KT 7SM CLR M12/M15 A3046 RMK AO2 SLP339 T11171150 $
                 =
2018-01-17 10:39 METAR KAKR 171539Z AUTO 22006KT 6SM HZ FEW012 M12/M16 A3046 RMK AO2 T11221156 $
                 =
2018-01-17 10:26 METAR KAKR 171526Z AUTO 21007KT 5SM HZ SCT011 BKN018 M13/M16 A3046 RMK AO2
                 T11281156 $ =
2018-01-17 10:19 METAR KAKR 171519Z AUTO 20008KT 5SM HZ FEW009 BKN013 OVC018 M13/M16 A3046 RMK
                 AO2 T11281156 $ =
2018-01-17 09:54 METAR KAKR 171454Z AUTO 22007KT 4SM HZ OVC018 M13/M16 A3046 RMK AO2 SNE31 SLP341
                 P0000 60000 T11331161 53001 $ =
2018-01-17 09:34 METAR KAKR 171434Z AUTO 22006KT 3SM HZ OVC020 M13/M16 A3046 RMK AO2 SNE31 P0000
                 T11331161 $ =
2018-01-17 08:54 METAR KAKR 171354Z AUTO 21006KT 2SM -SN BR OVC019 M14/M16 A3046 RMK AO2 SNB25
                 SLP338 P0000 T11391161 $ =
2018-01-17 08:39 METAR KAKR 171339Z AUTO 23007KT 2 1/2SM -SN FEW009 OVC019 M14/M17 A3046 RMK AO2
                 SNB25 P0000 T11391167 =
2018-01-17 07:54 METAR KAKR 171254Z AUTO 20005KT 5SM BR SCT009 OVC018 M14/M17 A3045 RMK AO2
                 SNB22E38 SLP336 P0000 T11441167 =
2018-01-17 06:54 METAR KAKR 171154Z AUTO 24006KT 7SM OVC008 M15/M17 A3046 RMK AO2 SLP339 60000
                 T11501172 11150 21167 53005 $ =
2018-01-17 06:29 METAR KAKR 171129Z AUTO 23004KT 7SM OVC009 M15/M18 A3046 RMK AO2 T11501178 $ =
2018-01-17 05:54 METAR KAKR 171054Z AUTO 23007KT 7SM OVC011 M15/M18 A3046 RMK AO2 SNB21E31 SLP337
                 P0000 T11501178 $ =
2018-01-17 05:40 METAR KAKR 171040Z AUTO 23007KT 6SM HZ OVC013 M15/M18 A3046 RMK AO2 SNB21E31
                 P0000 T11501178 $ =
2018-01-17 04:54 METAR KAKR 170954Z AUTO 23005KT 8SM OVC017 M16/M18 A3045 RMK AO2 SLP335
                 T11561183 $ =
2018-01-17 03:54 METAR KAKR 170854Z AUTO 24008KT 10SM BKN021 M16/M19 A3045 RMK AO2 SLP334
                 T11561189 51001 $ =
2018-01-17 03:15 METAR KAKR 170815Z AUTO 24006KT 9SM FEW015 M16/M19 A3045 RMK AO2 T11611189 $ =
2018-01-17 02:54 METAR KAKR 170754Z AUTO 23005KT 9SM BKN016 M16/M19 A3045 RMK AO2 SLP334
                 T11561189 $ =
2018-01-17 01:54 METAR KAKR 170654Z AUTO 24003KT 10SM OVC016 M16/M19 A3045 RMK AO2 SLP335
                 T11611189 $ =
2018-01-17 01:43 METAR KAKR 170643Z AUTO 22006KT 10SM BKN016 M16/M19 A3045 RMK AO2 T11611189 $ =
2018-01-17 01:11 METAR KAKR 170611Z AUTO 22006KT 10SM SCT013 M16/M19 A3044 RMK AO2 T11611189 $ =
2018-01-17 00:54 METAR KAKR 170554Z AUTO 22007KT 10SM OVC013 M16/M19 A3045 RMK AO2 SLP334
                 T11561189 11128 21161 58002 $ =
2018-01-17 00:42 METAR KAKR 170542Z AUTO 23007KT 10SM OVC014 M16/M18 A3045 RMK AO2 T11561183 $ =
2018-01-16 23:54 METAR KAKR 170454Z AUTO 24007KT 8SM OVC018 M15/M18 A3046 RMK AO2 SLP338
                 T11501183 410281161 $ =
2018-01-16 22:54 METAR KAKR 170354Z AUTO 24009KT 10SM BKN021 BKN025 M15/M18 A3046 RMK AO2 SLP338
                 T11501183 $ =
2018-01-16 21:54 METAR KAKR 170254Z AUTO 26005KT 10SM CLR M16/M19 A3045 RMK AO2 SLP336 T11561189
                 51012 $ =
2018-01-16 20:54 METAR KAKR 170154Z AUTO 25005KT 10SM FEW024 SCT037 M14/M18 A3045 RMK AO2 SLP333
                 T11441178 $ =
2018-01-16 19:54 METAR KAKR 170054Z AUTO 23005KT 10SM FEW021 M14/M18 A3043 RMK AO2 SLP326
                 T11391178 $ =
2018-01-16 19:45 METAR KAKR 170045Z AUTO 25005KT 10SM SCT022 M14/M18 A3043 RMK AO2 T11391178 $ =
2018-01-16 19:23 METAR KAKR 170023Z AUTO 23005KT 10SM BKN023 OVC044 M13/M17 A3042 RMK AO2
                 T11331172 $ =
2018-01-16 18:54 METAR KAKR 162354Z AUTO 22005KT 10SM SCT027 BKN045 M13/M17 A3042 RMK AO2 SLP319
                 T11331172 11111 21133 53013 $ =
2018-01-16 17:54 METAR KAKR 162254Z AUTO 23005KT 10SM CLR M12/M17 A3040 RMK AO2 SLP313 T11171172
                 $ =
2018-01-16 16:54 METAR KAKR 162154Z AUTO 23007KT 10SM CLR M11/M17 A3038 RMK AO2 SLP307 T11111167
                 $ =

Support USWX by starting your Amazon purchase here.